Terminal Aerodrome Forecast
Issued by NWS Cleveland, OH

Home | Current Version | Previous Version | Graphics & Text | Print | Product List | Glossary On
Versions: 1 2 3 4 5 6 7 8 9 10 11 12 13
000
FTUS41 KCLE 180500
TAFYNG
TAF
KYNG 180520Z 1806/1906 13008KT P6SM BKN250
     FM181300 19008KT P6SM BKN120 OVC200
     FM181800 27008KT P6SM VCSH SCT040 OVC100
     FM190000 36007KT P6SM SCT100 OVC200=

USA.gov is the U.S. government's official web portal to all federal, state and local government web resources and services.